createdAt,value
2022-11-05T00:00:37.189Z,12.11
2022-11-05T00:03:23.481Z,12.10
2022-11-05T00:06:12.407Z,12.10
2022-11-05T00:08:59.806Z,12.06
2022-11-05T00:11:46.711Z,12.06
2022-11-05T00:14:32.366Z,12.04
2022-11-05T00:16:59.127Z,12.02
2022-11-05T00:19:25.904Z,12.02
2022-11-05T00:22:11.131Z,12.01
2022-11-05T00:24:56.348Z,11.99
2022-11-05T00:27:23.134Z,11.96
2022-11-05T00:29:49.920Z,11.95
2022-11-05T00:32:16.674Z,11.95
2022-11-05T00:34:43.460Z,11.93
2022-11-05T00:37:10.264Z,11.93
2022-11-05T00:39:37.160Z,11.92
2022-11-05T00:42:22.819Z,11.89
2022-11-05T00:45:01.376Z,11.87
2022-11-05T00:47:47.601Z,11.83
2022-11-05T00:50:14.390Z,11.82
2022-11-05T00:52:55.955Z,11.80
2022-11-05T00:55:41.960Z,11.80
2022-11-05T00:58:20.673Z,11.78
2022-11-05T01:00:54.443Z,11.77
2022-11-05T01:03:28.407Z,11.76
2022-11-05T01:05:58.977Z,11.74
2022-11-05T01:08:28.004Z,11.72
2022-11-05T01:10:58.035Z,11.72
2022-11-05T01:13:29.979Z,11.71
2022-11-05T01:15:57.381Z,11.71
2022-11-05T01:18:25.222Z,11.68
2022-11-05T01:20:52.223Z,11.66
2022-11-05T01:23:19.592Z,11.65
2022-11-05T01:25:46.667Z,11.63
2022-11-05T01:28:13.482Z,11.63
2022-11-05T01:30:40.327Z,11.61
2022-11-05T01:33:07.301Z,11.60
2022-11-05T01:35:34.172Z,11.57
2022-11-05T01:38:00.954Z,11.55
2022-11-05T01:40:27.773Z,11.52
2022-11-05T01:42:54.575Z,11.52
2022-11-05T01:45:30.380Z,11.51
2022-11-05T01:48:23.764Z,11.47
2022-11-05T01:51:12.118Z,11.45
2022-11-05T01:53:50.252Z,11.44
2022-11-05T01:56:48.471Z,11.40
2022-11-05T01:59:26.315Z,11.38
2022-11-05T02:01:54.282Z,11.37
2022-11-05T02:04:44.391Z,11.36
2022-11-05T02:07:11.860Z,11.33
2022-11-05T02:09:47.419Z,11.32
2022-11-05T02:12:15.319Z,11.31
2022-11-05T02:14:42.149Z,11.29
2022-11-05T02:17:20.724Z,11.29
2022-11-05T02:19:58.783Z,11.29
2022-11-05T02:23:03.884Z,11.24
2022-11-05T02:26:01.992Z,11.21
2022-11-05T02:29:27.367Z,11.17
2022-11-05T02:32:37.684Z,11.13
2022-11-05T02:35:38.665Z,11.13
2022-11-05T02:38:35.453Z,11.10
2022-11-05T02:41:18.569Z,11.09
2022-11-05T02:44:06.059Z,11.09
2022-11-05T02:46:48.421Z,11.07
2022-11-05T02:49:42.523Z,11.05
2022-11-05T02:52:33.658Z,11.04
2022-11-05T02:55:30.492Z,11.02
2022-11-05T02:57:59.782Z,10.99
2022-11-05T03:00:53.841Z,10.99
2022-11-05T03:03:33.285Z,10.96
2022-11-05T03:06:17.971Z,10.95
2022-11-05T03:09:10.643Z,10.94
2022-11-05T03:12:14.226Z,10.92
2022-11-05T03:15:24.239Z,10.85
2022-11-05T03:18:12.075Z,10.85
2022-11-05T03:20:54.958Z,10.85
2022-11-05T03:23:40.798Z,10.83
2022-11-05T03:26:19.730Z,10.82
2022-11-05T03:29:06.516Z,10.82
2022-11-05T03:31:36.829Z,10.79
2022-11-05T03:34:06.544Z,10.79
2022-11-05T03:36:42.860Z,10.81
2022-11-05T03:39:20.281Z,10.78
2022-11-05T03:41:49.419Z,10.76
2022-11-05T03:44:23.689Z,10.75
2022-11-05T03:46:50.843Z,10.70
2022-11-05T03:49:32.377Z,10.71
2022-11-05T03:52:09.736Z,10.69
2022-11-05T03:54:36.928Z,10.68
2022-11-05T03:57:11.331Z,10.68
2022-11-05T03:59:44.918Z,10.68
2022-11-05T04:02:14.396Z,10.65
2022-11-05T04:04:41.314Z,10.63
2022-11-05T04:07:29.181Z,10.62
2022-11-05T04:10:14.846Z,10.60
2022-11-05T04:13:00.166Z,10.59
2022-11-05T04:15:27.278Z,10.57
2022-11-05T04:17:55.431Z,10.57
2022-11-05T04:20:40.478Z,10.56
2022-11-05T04:23:25.627Z,10.53
2022-11-05T04:25:52.424Z,10.50
2022-11-05T04:28:19.427Z,10.50
2022-11-05T04:30:46.216Z,10.50
2022-11-05T04:33:16.859Z,10.48
2022-11-05T04:35:48.633Z,10.46
2022-11-05T04:38:18.297Z,10.45
2022-11-05T04:40:46.321Z,10.43
2022-11-05T04:43:16.831Z,10.42
2022-11-05T04:45:44.200Z,10.39
2022-11-05T04:48:11.756Z,10.38
2022-11-05T04:50:39.308Z,10.37
2022-11-05T04:53:06.244Z,10.35
2022-11-05T04:55:33.032Z,10.32
2022-11-05T04:57:59.824Z,10.30
2022-11-05T05:00:26.752Z,10.27
2022-11-05T05:02:53.703Z,10.27
2022-11-05T05:05:22.459Z,10.24
2022-11-05T05:07:49.216Z,10.23
2022-11-05T05:10:15.977Z,10.22
2022-11-05T05:12:42.915Z,10.20
2022-11-05T05:15:09.932Z,10.20
2022-11-05T05:17:36.783Z,10.18
2022-11-05T05:20:22.595Z,10.18
2022-11-05T05:22:54.232Z,10.17
2022-11-05T05:25:21.499Z,10.15
2022-11-05T05:27:48.766Z,10.16
2022-11-05T05:30:15.775Z,10.15
2022-11-05T05:32:42.546Z,10.12
2022-11-05T05:35:09.632Z,10.13
2022-11-05T05:37:36.428Z,10.10
2022-11-05T05:40:03.300Z,10.10
2022-11-05T05:42:30.111Z,10.09
2022-11-05T05:44:56.893Z,10.07
2022-11-05T05:47:23.760Z,10.05
2022-11-05T05:49:50.524Z,10.05
2022-11-05T05:52:17.286Z,10.04
2022-11-05T05:54:44.029Z,10.03
2022-11-05T05:57:10.887Z,10.02
2022-11-05T05:59:37.647Z,9.99
2022-11-05T06:02:04.612Z,9.98
2022-11-05T06:04:31.638Z,9.98
2022-11-05T06:06:58.417Z,9.94
2022-11-05T06:09:25.161Z,9.92
2022-11-05T06:11:51.992Z,9.92
2022-11-05T06:14:18.750Z,9.91
2022-11-05T06:16:45.732Z,9.89
2022-11-05T06:19:12.554Z,9.88
2022-11-05T06:21:39.325Z,9.86
2022-11-05T06:24:06.522Z,9.86
2022-11-05T06:26:34.493Z,9.83
2022-11-05T06:29:01.245Z,9.83
2022-11-05T06:31:28.013Z,9.82
2022-11-05T06:33:54.808Z,9.81
2022-11-05T06:36:21.689Z,9.80
2022-11-05T06:38:48.511Z,9.81
2022-11-05T06:41:15.504Z,9.80
2022-11-05T06:43:42.297Z,9.81
2022-11-05T06:46:11.135Z,9.83
2022-11-05T06:48:38.544Z,9.84
2022-11-05T06:51:06.764Z,9.86
2022-11-05T06:53:34.420Z,9.87
2022-11-05T06:56:06.598Z,9.89
2022-11-05T06:58:33.810Z,9.90
2022-11-05T07:01:07.852Z,9.93
2022-11-05T07:03:38.457Z,9.95
2022-11-05T07:06:07.216Z,9.99
2022-11-05T07:08:36.246Z,10.02
2022-11-05T07:11:03.819Z,10.06
2022-11-05T07:13:30.658Z,10.10
2022-11-05T07:15:58.145Z,10.15
2022-11-05T07:18:25.208Z,10.19
2022-11-05T07:20:51.982Z,10.22
2022-11-05T07:23:18.783Z,10.27
2022-11-05T07:25:45.555Z,10.33
2022-11-05T07:28:14.329Z,10.39
2022-11-05T07:30:41.380Z,10.45
2022-11-05T07:33:08.489Z,10.55
2022-11-05T07:35:35.608Z,10.65
2022-11-05T07:38:02.741Z,10.75
2022-11-05T07:40:30.305Z,10.87
2022-11-05T07:43:00.186Z,10.98
2022-11-05T07:45:30.224Z,11.07
2022-11-05T07:48:00.537Z,11.14
2022-11-05T07:50:32.590Z,11.22
2022-11-05T07:53:05.932Z,11.29
2022-11-05T07:55:33.325Z,11.35
2022-11-05T07:58:00.174Z,11.42
2022-11-05T08:00:28.380Z,11.50
2022-11-05T08:03:08.412Z,11.56
2022-11-05T08:05:38.516Z,11.62
2022-11-05T08:08:08.088Z,11.68
2022-11-05T08:10:35.441Z,11.75
2022-11-05T08:13:02.486Z,11.83
2022-11-05T08:15:29.557Z,11.92
2022-11-05T08:18:06.869Z,12.00
2022-11-05T08:20:34.779Z,12.06
2022-11-05T08:23:01.707Z,12.13
2022-11-05T08:25:29.053Z,12.18
2022-11-05T08:27:58.393Z,12.27
2022-11-05T08:30:25.635Z,12.30
2022-11-05T08:32:58.259Z,12.35
2022-11-05T08:35:26.331Z,12.37
2022-11-05T08:37:58.096Z,12.44
2022-11-05T08:40:26.015Z,12.47
2022-11-05T08:42:53.366Z,12.51
2022-11-05T08:45:20.121Z,12.56
2022-11-05T08:47:46.917Z,12.60
2022-11-05T08:50:13.689Z,12.64
2022-11-05T08:52:41.064Z,12.69
2022-11-05T08:55:08.458Z,12.73
2022-11-05T08:57:35.231Z,12.76
2022-11-05T09:00:02.024Z,12.81
2022-11-05T09:02:28.861Z,12.86
2022-11-05T09:04:55.659Z,12.92
2022-11-05T09:07:22.909Z,12.96
2022-11-05T09:09:49.688Z,13.02
2022-11-05T09:12:16.651Z,13.06
2022-11-05T09:14:43.444Z,13.11
2022-11-05T09:17:20.798Z,13.16
2022-11-05T09:19:47.892Z,13.20
2022-11-05T09:22:14.733Z,13.24
2022-11-05T09:24:42.832Z,13.29
2022-11-05T09:27:14.523Z,13.35
2022-11-05T09:29:42.423Z,13.39
2022-11-05T09:32:09.612Z,13.45
2022-11-05T09:34:36.628Z,13.50
2022-11-05T09:37:03.578Z,13.56
2022-11-05T09:39:30.414Z,13.60
2022-11-05T09:42:05.409Z,13.66
2022-11-05T09:44:59.311Z,13.70
2022-11-05T09:47:52.463Z,13.75
2022-11-05T09:50:31.241Z,13.80
2022-11-05T09:52:58.520Z,13.82
2022-11-05T09:55:34.745Z,13.87
2022-11-05T09:58:10.628Z,13.93
2022-11-05T10:00:37.506Z,13.96
2022-11-05T10:03:10.976Z,14.02
2022-11-05T10:05:39.153Z,14.06
2022-11-05T10:08:19.991Z,14.11
2022-11-05T10:10:52.830Z,14.17
2022-11-05T10:13:30.017Z,14.21
2022-11-05T10:16:21.777Z,14.27
2022-11-05T10:18:58.970Z,14.31
2022-11-05T10:21:51.417Z,14.34
2022-11-05T10:24:19.483Z,14.39
2022-11-05T10:26:50.767Z,14.43
2022-11-05T10:29:29.261Z,14.48
2022-11-05T10:32:03.361Z,14.53
2022-11-05T10:34:34.871Z,14.54
2022-11-05T10:37:02.057Z,14.55
2022-11-05T10:39:32.567Z,14.58
2022-11-05T10:42:11.063Z,14.62
2022-11-05T10:45:04.707Z,14.63
2022-11-05T10:47:59.627Z,14.64
2022-11-05T10:50:29.483Z,14.65
2022-11-05T10:53:02.269Z,14.70
2022-11-05T10:55:33.944Z,14.74
2022-11-05T10:58:35.182Z,14.77
2022-11-05T11:01:09.099Z,14.80
2022-11-05T11:03:44.267Z,14.83
2022-11-05T11:06:32.441Z,14.84
2022-11-05T11:09:03.073Z,14.84
2022-11-05T11:11:29.947Z,14.88
2022-11-05T11:14:04.169Z,14.93
2022-11-05T11:16:47.305Z,14.97
2022-11-05T11:19:30.098Z,15.02
2022-11-05T11:22:05.890Z,15.07
2022-11-05T11:24:48.896Z,15.13
2022-11-05T11:27:30.196Z,15.17
2022-11-05T11:30:02.906Z,15.23
2022-11-05T11:32:37.978Z,15.33
2022-11-05T11:35:08.837Z,15.38
2022-11-05T11:37:41.875Z,15.40
2022-11-05T11:40:30.651Z,15.49
2022-11-05T11:43:01.708Z,15.53
2022-11-05T11:45:38.844Z,15.62
2022-11-05T11:48:07.697Z,15.64
2022-11-05T11:50:44.484Z,15.68
2022-11-05T11:53:21.364Z,15.69
2022-11-05T11:56:12.344Z,15.73
2022-11-05T11:58:54.446Z,15.79
2022-11-05T12:01:39.674Z,15.82
2022-11-05T12:04:38.009Z,15.86
2022-11-05T12:07:48.291Z,15.84
2022-11-05T12:10:28.305Z,15.80
2022-11-05T12:13:20.022Z,15.79
2022-11-05T12:16:37.475Z,15.78
2022-11-05T12:19:48.104Z,15.75
2022-11-05T12:22:55.191Z,15.74
2022-11-05T12:25:49.133Z,15.72
2022-11-05T12:29:04.661Z,15.68
2022-11-05T12:31:43.163Z,15.65
2022-11-05T12:35:07.746Z,15.59
2022-11-05T12:37:58.374Z,15.55
2022-11-05T12:40:55.766Z,15.55
2022-11-05T12:43:57.769Z,15.54
2022-11-05T12:47:09.551Z,15.58
2022-11-05T12:50:00.232Z,15.58
2022-11-05T12:52:44.879Z,15.58
2022-11-05T12:55:45.532Z,15.56
2022-11-05T12:58:31.346Z,15.57
2022-11-05T13:01:06.706Z,15.58
2022-11-05T13:03:51.817Z,15.64
2022-11-05T13:06:25.852Z,15.67
2022-11-05T13:09:04.325Z,15.74
2022-11-05T13:11:42.551Z,15.82
2022-11-05T13:14:55.813Z,15.88
2022-11-05T13:17:34.436Z,15.85
2022-11-05T13:20:20.081Z,15.85
2022-11-05T13:23:07.100Z,15.82
2022-11-05T13:25:42.015Z,15.80
2022-11-05T13:28:28.127Z,15.82
2022-11-05T13:31:02.900Z,15.81
2022-11-05T13:33:39.455Z,15.81
2022-11-05T13:36:47.101Z,15.81
2022-11-05T13:39:24.401Z,15.81
2022-11-05T13:42:12.073Z,15.88
2022-11-05T13:45:08.076Z,15.92
2022-11-05T13:48:05.850Z,15.97
2022-11-05T13:51:12.609Z,15.99
2022-11-05T13:53:57.275Z,15.99
2022-11-05T13:56:36.206Z,15.90
2022-11-05T13:59:38.217Z,15.88
2022-11-05T14:02:22.119Z,15.84
2022-11-05T14:05:00.697Z,15.84
2022-11-05T14:07:38.560Z,15.83
2022-11-05T14:10:43.988Z,15.81
2022-11-05T14:13:20.936Z,15.75
2022-11-05T14:16:15.826Z,15.75
2022-11-05T14:18:52.652Z,15.75
2022-11-05T14:21:31.576Z,15.77
2022-11-05T14:24:27.925Z,15.79
2022-11-05T14:27:00.786Z,15.78
2022-11-05T14:29:40.394Z,15.76
2022-11-05T14:32:25.277Z,15.73
2022-11-05T14:35:16.023Z,15.67
2022-11-05T14:37:54.248Z,15.62
2022-11-05T14:40:42.335Z,15.58
2022-11-05T14:43:15.134Z,15.51
2022-11-05T14:45:53.912Z,15.44
2022-11-05T14:48:43.991Z,15.35
2022-11-05T14:51:44.311Z,15.24
2022-11-05T14:54:33.084Z,15.17
2022-11-05T14:57:02.391Z,15.10
2022-11-05T14:59:29.085Z,15.06
2022-11-05T15:02:09.667Z,15.01
2022-11-05T15:04:40.545Z,14.93
2022-11-05T15:07:07.229Z,14.88
2022-11-05T15:09:49.345Z,14.81
2022-11-05T15:12:41.786Z,14.71
2022-11-05T15:15:46.962Z,14.65
2022-11-05T15:18:33.548Z,14.57
2022-11-05T15:21:04.773Z,14.51
2022-11-05T15:23:42.358Z,14.48
2022-11-05T15:26:20.453Z,14.42
2022-11-05T15:28:52.969Z,14.38
2022-11-05T15:31:41.173Z,14.32
2022-11-05T15:34:35.646Z,14.27
2022-11-05T15:37:09.631Z,14.24
2022-11-05T15:39:46.213Z,14.22
2022-11-05T15:42:22.922Z,14.19
2022-11-05T15:44:58.036Z,14.16
2022-11-05T15:47:34.486Z,14.17
2022-11-05T15:50:14.950Z,14.14
2022-11-05T15:52:54.533Z,14.14
2022-11-05T15:55:24.801Z,14.13
2022-11-05T15:58:01.251Z,14.12
2022-11-05T16:00:33.032Z,14.13
2022-11-05T16:03:22.800Z,14.12
2022-11-05T16:05:50.002Z,14.10
2022-11-05T16:08:23.878Z,14.10
2022-11-05T16:10:55.064Z,14.10
2022-11-05T16:13:30.783Z,14.07
2022-11-05T16:16:21.797Z,14.07
2022-11-05T16:18:48.784Z,14.05
2022-11-05T16:21:23.035Z,14.06
2022-11-05T16:23:49.718Z,13.99
2022-11-05T16:26:55.868Z,14.00
2022-11-05T16:29:35.038Z,13.98
2022-11-05T16:32:36.751Z,13.96
2022-11-05T16:35:06.962Z,13.97
2022-11-05T16:37:40.914Z,13.97
2022-11-05T16:40:17.787Z,13.98
2022-11-05T16:42:48.288Z,13.96
2022-11-05T16:45:18.428Z,13.97
2022-11-05T16:47:46.707Z,13.96
2022-11-05T16:50:30.936Z,13.96
2022-11-05T16:52:57.862Z,13.94
2022-11-05T16:55:24.632Z,13.93
2022-11-05T16:57:54.581Z,13.92
2022-11-05T17:00:22.480Z,13.90
2022-11-05T17:02:50.236Z,13.91
2022-11-05T17:05:30.307Z,13.90
2022-11-05T17:07:57.809Z,13.87
2022-11-05T17:10:26.090Z,13.87
2022-11-05T17:12:53.361Z,13.84
2022-11-05T17:15:35.512Z,13.84
2022-11-05T17:18:04.343Z,13.81
2022-11-05T17:20:45.494Z,13.80
2022-11-05T17:23:17.681Z,13.80
2022-11-05T17:25:51.664Z,13.78
2022-11-05T17:28:19.998Z,13.78
2022-11-05T17:30:54.196Z,13.76
2022-11-05T17:33:24.183Z,13.75
2022-11-05T17:35:51.847Z,13.73
2022-11-05T17:38:19.390Z,13.71
2022-11-05T17:40:46.230Z,13.71
2022-11-05T17:43:13.420Z,13.69
2022-11-05T17:45:47.499Z,13.70
2022-11-05T17:48:15.750Z,13.67
2022-11-05T17:50:45.352Z,13.67
2022-11-05T17:53:14.033Z,13.65
2022-11-05T17:55:46.494Z,13.65
2022-11-05T17:58:13.940Z,13.64
2022-11-05T18:00:42.104Z,13.63
2022-11-05T18:03:10.854Z,13.63
2022-11-05T18:05:38.473Z,13.61
2022-11-05T18:08:06.127Z,13.62
2022-11-05T18:10:33.153Z,13.60
2022-11-05T18:12:59.982Z,13.59
2022-11-05T18:15:26.788Z,13.58
2022-11-05T18:17:53.609Z,13.56
2022-11-05T18:20:20.920Z,13.55
2022-11-05T18:22:51.587Z,13.53
2022-11-05T18:25:18.904Z,13.49
2022-11-05T18:27:45.805Z,13.48
2022-11-05T18:30:15.376Z,13.46
2022-11-05T18:32:44.010Z,13.44
2022-11-05T18:35:11.241Z,13.42
2022-11-05T18:37:39.057Z,13.42
2022-11-05T18:40:07.556Z,13.41
2022-11-05T18:42:34.376Z,13.40
2022-11-05T18:45:01.186Z,13.38
2022-11-05T18:47:28.019Z,13.39
2022-11-05T18:49:54.832Z,13.37
2022-11-05T18:52:21.607Z,13.38
2022-11-05T18:54:48.459Z,13.36
2022-11-05T18:57:15.219Z,13.36
2022-11-05T18:59:46.479Z,13.35
2022-11-05T19:02:14.353Z,13.34
2022-11-05T19:05:00.278Z,13.34
2022-11-05T19:07:28.929Z,13.32
2022-11-05T19:09:55.865Z,13.32
2022-11-05T19:12:22.973Z,13.31
2022-11-05T19:14:49.947Z,13.31
2022-11-05T19:17:16.817Z,13.31
2022-11-05T19:19:43.619Z,13.31
2022-11-05T19:22:10.425Z,13.30
2022-11-05T19:24:37.278Z,13.29
2022-11-05T19:27:04.245Z,13.29
2022-11-05T19:29:31.133Z,13.29
2022-11-05T19:31:57.945Z,13.30
2022-11-05T19:34:24.827Z,13.29
2022-11-05T19:36:51.635Z,13.29
2022-11-05T19:39:18.440Z,13.29
2022-11-05T19:41:45.224Z,13.27
2022-11-05T19:44:12.105Z,13.27
2022-11-05T19:46:38.950Z,13.26
2022-11-05T19:49:05.761Z,13.26
2022-11-05T19:51:32.805Z,13.26
2022-11-05T19:54:01.681Z,13.25
2022-11-05T19:56:34.045Z,13.25
2022-11-05T19:59:03.216Z,13.24
2022-11-05T20:01:30.569Z,13.23
2022-11-05T20:03:58.860Z,13.23
2022-11-05T20:06:31.843Z,13.23
2022-11-05T20:11:50.767Z,13.21
2022-11-05T20:14:17.667Z,13.19
2022-11-05T20:16:46.236Z,13.20
2022-11-05T20:19:17.601Z,13.19
2022-11-05T20:21:45.065Z,13.16
2022-11-05T20:24:18.818Z,13.15
2022-11-05T20:26:50.544Z,13.12
2022-11-05T20:29:17.343Z,13.11
2022-11-05T20:31:44.093Z,13.10
2022-11-05T20:34:10.867Z,13.09
2022-11-05T20:36:39.065Z,13.08
2022-11-05T20:39:05.978Z,13.09
2022-11-05T20:41:33.183Z,13.08
2022-11-05T20:44:00.067Z,13.07
2022-11-05T20:46:27.035Z,13.06
2022-11-05T20:48:54.709Z,13.06
2022-11-05T20:51:24.263Z,13.05
2022-11-05T20:53:56.888Z,13.05
2022-11-05T20:56:30.610Z,13.03
2022-11-05T20:58:59.280Z,13.03
2022-11-05T21:01:32.131Z,13.02
2022-11-05T21:03:59.730Z,13.02
2022-11-05T21:06:26.662Z,13.02
2022-11-05T21:08:53.890Z,13.02
2022-11-05T21:11:21.264Z,13.01
2022-11-05T21:13:48.444Z,13.01
2022-11-05T21:16:18.773Z,13.01
2022-11-05T21:18:46.866Z,13.00
2022-11-05T21:21:18.045Z,12.99
2022-11-05T21:23:45.228Z,12.97
2022-11-05T21:26:14.652Z,12.98
2022-11-05T21:28:42.407Z,12.98
2022-11-05T21:31:10.243Z,12.96
2022-11-05T21:33:37.520Z,12.95
2022-11-05T21:36:10.965Z,12.96
2022-11-05T21:38:38.091Z,12.94
2022-11-05T21:41:06.253Z,12.95
2022-11-05T21:43:33.530Z,12.95
2022-11-05T21:46:02.530Z,12.95
2022-11-05T21:48:29.434Z,12.95
2022-11-05T21:51:15.105Z,12.95
2022-11-05T21:54:00.297Z,12.94
2022-11-05T21:56:46.652Z,12.92
2022-11-05T21:59:35.590Z,12.91
2022-11-05T22:02:03.089Z,12.90
2022-11-05T22:04:36.160Z,12.90
2022-11-05T22:07:03.693Z,12.92
2022-11-05T22:09:30.546Z,12.90
2022-11-05T22:11:57.461Z,12.91
2022-11-05T22:14:24.940Z,12.93
2022-11-05T22:16:51.887Z,12.91
2022-11-05T22:19:19.524Z,12.92
2022-11-05T22:21:47.116Z,12.92
2022-11-05T22:24:14.051Z,12.92
2022-11-05T22:26:41.751Z,12.90
2022-11-05T22:29:08.910Z,12.89
2022-11-05T22:31:36.674Z,12.87
2022-11-05T22:34:05.295Z,12.86
2022-11-05T22:36:35.425Z,12.83
2022-11-05T22:39:03.558Z,12.81
2022-11-05T22:41:30.581Z,12.80
2022-11-05T22:43:57.765Z,12.77
2022-11-05T22:46:26.573Z,12.74
2022-11-05T22:48:54.313Z,12.71
2022-11-05T22:51:25.563Z,12.69
2022-11-05T22:53:52.806Z,12.65
2022-11-05T22:56:24.954Z,12.60
2022-11-05T22:58:52.581Z,12.56
2022-11-05T23:01:22.005Z,12.51
2022-11-05T23:03:50.838Z,12.46
2022-11-05T23:06:43.750Z,12.43
2022-11-05T23:09:37.759Z,12.39
2022-11-05T23:12:08.841Z,12.32
2022-11-05T23:14:36.685Z,12.29
2022-11-05T23:17:22.513Z,12.27
2022-11-05T23:20:07.966Z,12.24
2022-11-05T23:22:53.151Z,12.19
2022-11-05T23:25:22.573Z,12.19
2022-11-05T23:27:53.295Z,12.17
2022-11-05T23:30:26.480Z,12.17
2022-11-05T23:32:54.116Z,12.13
2022-11-05T23:35:40.849Z,12.13
2022-11-05T23:38:26.011Z,12.11
2022-11-05T23:41:11.314Z,12.09
2022-11-05T23:43:56.468Z,12.07
2022-11-05T23:46:41.616Z,12.05
2022-11-05T23:49:08.514Z,12.03
2022-11-05T23:51:35.396Z,12.04
2022-11-05T23:54:02.241Z,12.03
2022-11-05T23:56:30.933Z,12.02
2022-11-05T23:58:58.023Z,12.02
